Time;durP1;ratioP1;P1;durP2;ratioP2;P2;SDS_P1;SDS_P2;PMS_P1;PMS_P2;Temp;Humidity;BMP_temperature;BMP_pressure;BME280_temperature;BME280_humidity;BME280_pressure;Samples;Min_cycle;Max_cycle;Signal;HPM_P1;HPM_P2
2023/01/07 00:00:49;;;;;;;5.70;4.17;;;7.00;99.90;;;;;;5025361;28;20437;-60
2023/01/07 00:03:17;;;;;;;5.53;3.97;;;6.90;99.90;;;;;;5022985;28;20955;-58
2023/01/07 00:05:43;;;;;;;6.77;4.20;;;7.00;99.90;;;;;;5016725;28;20196;-58
2023/01/07 00:08:10;;;;;;;3.50;3.07;;;6.90;99.90;;;;;;5014004;28;20434;-58
2023/01/07 00:10:35;;;;;;;4.27;3.20;;;6.90;99.90;;;;;;5028577;28;20449;-59
2023/01/07 00:13:01;;;;;;;3.03;2.57;;;7.00;99.90;;;;;;5026372;28;20458;-59
2023/01/07 00:15:27;;;;;;;4.20;2.37;;;6.90;99.90;;;;;;5028226;28;20179;-60
2023/01/07 00:17:53;;;;;;;2.60;2.40;;;6.90;99.90;;;;;;5031117;28;20531;-59
2023/01/07 00:20:18;;;;;;;2.60;2.33;;;6.90;99.90;;;;;;5024151;28;20263;-59
2023/01/07 00:22:44;;;;;;;2.23;2.03;;;6.90;99.90;;;;;;5022962;28;20675;-58
2023/01/07 00:25:10;;;;;;;3.73;2.50;;;6.90;99.90;;;;;;5027667;28;20183;-58
2023/01/07 00:27:35;;;;;;;6.20;3.27;;;7.00;99.90;;;;;;5025550;28;20231;-59
2023/01/07 00:30:01;;;;;;;4.97;2.50;;;6.90;99.90;;;;;;5020422;28;20180;-58
2023/01/07 00:32:50;;;;;;;3.10;2.80;;;6.90;99.90;;;;;;5025316;28;20191;-59
2023/01/07 00:35:22;;;;;;;3.13;2.83;;;6.90;99.90;;;;;;5029433;28;20587;-58
2023/01/07 00:37:52;;;;;;;2.77;2.57;;;6.90;99.90;;;;;;5025210;28;20446;-58
2023/01/07 00:40:18;;;;;;;4.33;2.60;;;6.90;99.90;;;;;;5024078;28;20949;-58
2023/01/07 00:42:54;;;;;;;5.27;3.17;;;6.90;99.90;;;;;;5034806;28;20437;-58
2023/01/07 00:45:24;;;;;;;4.77;2.73;;;6.90;99.90;;;;;;5029009;28;20475;-58
2023/01/07 00:47:53;;;;;;;3.93;2.37;;;6.90;99.90;;;;;;5022072;28;20977;-59
2023/01/07 00:50:20;;;;;;;14.93;4.03;;;6.90;99.90;;;;;;5026950;28;20464;-59
2023/01/07 00:52:46;;;;;;;3.20;2.20;;;6.90;99.90;;;;;;5027232;28;20481;-59
2023/01/07 00:55:13;;;;;;;5.57;2.43;;;6.90;99.90;;;;;;5029753;28;20434;-58
2023/01/07 00:57:40;;;;;;;2.57;2.23;;;6.90;99.90;;;;;;5021736;28;20217;-58
2023/01/07 01:00:06;;;;;;;5.10;2.30;;;6.90;99.90;;;;;;5012375;28;20442;-60
2023/01/07 01:02:32;;;;;;;3.93;2.03;;;6.90;99.90;;;;;;5025779;28;20442;-59
2023/01/07 01:04:58;;;;;;;2.20;2.00;;;6.90;99.90;;;;;;5022225;28;20438;-58
2023/01/07 01:07:23;;;;;;;8.20;4.37;;;6.90;99.90;;;;;;5030995;28;20235;-58
2023/01/07 01:09:49;;;;;;;9.47;3.47;;;6.90;99.90;;;;;;5017036;28;20173;-58
2023/01/07 01:12:15;;;;;;;4.77;2.70;;;6.90;99.90;;;;;;5031013;28;20187;-58
2023/01/07 01:14:40;;;;;;;2.50;2.20;;;6.90;99.90;;;;;;5022823;28;20212;-59
2023/01/07 01:17:06;;;;;;;3.23;2.50;;;6.90;99.90;;;;;;5023797;28;20634;-58
2023/01/07 01:19:31;;;;;;;3.50;2.63;;;7.00;99.90;;;;;;5022065;28;20187;-57
2023/01/07 01:21:57;;;;;;;4.17;2.40;;;7.00;99.90;;;;;;5016387;28;20207;-59
2023/01/07 01:24:22;;;;;;;3.00;2.40;;;7.00;99.90;;;;;;5022786;28;20198;-60
2023/01/07 01:26:48;;;;;;;3.50;2.60;;;6.90;99.90;;;;;;5025143;28;20204;-58
2023/01/07 01:29:14;;;;;;;4.33;3.23;;;7.00;99.90;;;;;;5040002;28;20547;-58
2023/01/07 01:31:39;;;;;;;5.10;2.73;;;6.90;99.90;;;;;;5021307;28;20191;-58
2023/01/07 01:34:05;;;;;;;3.80;2.63;;;6.90;99.90;;;;;;5019906;28;20693;-61
2023/01/07 01:36:30;;;;;;;7.53;2.80;;;7.00;99.90;;;;;;5020231;28;20181;-58
2023/01/07 01:38:56;;;;;;;5.10;3.20;;;6.90;99.90;;;;;;5019439;28;20180;-58
2023/01/07 01:41:22;;;;;;;5.00;2.97;;;7.00;99.90;;;;;;5023093;28;20172;-58
2023/01/07 01:43:48;;;;;;;3.53;2.93;;;7.00;99.90;;;;;;5021040;28;20230;-58
2023/01/07 01:46:30;;;;;;;5.83;3.00;;;7.00;99.90;;;;;;5015232;28;20438;-58
2023/01/07 01:49:01;;;;;;;3.47;2.50;;;7.00;99.90;;;;;;5025303;28;20439;-58
2023/01/07 01:51:33;;;;;;;2.50;2.30;;;6.90;99.90;;;;;;5025502;28;20433;-58
2023/01/07 01:54:01;;;;;;;2.60;2.00;;;6.90;99.90;;;;;;5022378;28;20505;-58
2023/01/07 01:56:32;;;;;;;4.70;2.67;;;6.90;99.90;;;;;;5020613;28;20446;-58
2023/01/07 01:59:03;;;;;;;3.80;2.47;;;6.90;99.90;;;;;;5030149;28;20415;-58
2023/01/07 02:01:32;;;;;;;6.30;2.17;;;6.90;99.90;;;;;;5033429;28;20430;-58
2023/01/07 02:04:00;;;;;;;6.93;2.93;;;6.90;99.90;;;;;;5023664;28;20465;-58
2023/01/07 02:06:30;;;;;;;10.07;5.00;;;6.90;99.90;;;;;;5017939;28;20458;-58
2023/01/07 02:08:56;;;;;;;10.17;5.73;;;6.90;99.90;;;;;;5011966;28;20783;-58
2023/01/07 02:11:33;;;;;;;5.80;3.30;;;6.90;99.90;;;;;;5018917;28;20435;-58
2023/01/07 02:14:05;;;;;;;5.30;3.60;;;6.90;99.90;;;;;;5021409;28;20315;-58
2023/01/07 02:16:40;;;;;;;2.53;2.33;;;6.90;99.90;;;;;;5021141;28;20510;-58
2023/01/07 02:19:36;;;;;;;10.50;3.57;;;6.90;99.90;;;;;;5020924;28;20947;-58
2023/01/07 02:22:07;;;;;;;10.03;4.10;;;6.90;99.90;;;;;;5014270;28;20776;-58
2023/01/07 02:25:11;;;;;;;7.43;4.03;;;6.90;99.90;;;;;;5015255;28;20430;-59
2023/01/07 02:27:59;;;;;;;8.03;2.30;;;6.90;99.90;;;;;;5018904;28;20545;-58
2023/01/07 02:30:37;;;;;;;2.90;2.47;;;7.00;99.90;;;;;;5029749;28;20528;-58
2023/01/07 02:33:13;;;;;;;5.33;2.67;;;6.90;99.90;;;;;;5013896;28;20474;-59
2023/01/07 02:35:53;;;;;;;2.70;2.33;;;7.00;99.90;;;;;;5026581;28;20430;-58
2023/01/07 02:38:31;;;;;;;2.13;2.00;;;6.90;99.90;;;;;;5028371;28;20434;-58
2023/01/07 02:41:35;;;;;;;3.57;3.17;;;7.00;99.90;;;;;;5025260;28;20430;-59
2023/01/07 02:44:05;;;;;;;3.87;2.60;;;7.00;99.90;;;;;;5021750;28;20431;-58
2023/01/07 02:46:51;;;;;;;6.23;2.40;;;6.90;99.90;;;;;;5023765;28;20525;-59
2023/01/07 02:49:17;;;;;;;2.50;2.30;;;6.90;99.90;;;;;;5025125;28;20441;-59
2023/01/07 02:51:44;;;;;;;2.73;2.13;;;6.90;99.90;;;;;;5027900;28;20993;-58
2023/01/07 02:54:16;;;;;;;3.03;1.93;;;7.00;99.90;;;;;;5014159;28;20501;-58
2023/01/07 02:56:58;;;;;;;3.17;2.20;;;6.90;99.90;;;;;;5023465;28;20748;-58
2023/01/07 02:59:35;;;;;;;2.40;2.20;;;6.90;99.90;;;;;;5020386;28;20426;-59
2023/01/07 03:02:28;;;;;;;3.67;2.00;;;6.90;99.90;;;;;;5019074;28;20438;-62
2023/01/07 03:05:33;;;;;;;2.20;2.00;;;6.90;99.90;;;;;;5023082;28;21016;-58
2023/01/07 03:08:31;;;;;;;2.10;2.00;;;6.90;99.90;;;;;;4973628;28;20508;-58
2023/01/07 03:11:08;;;;;;;4.23;1.93;;;6.90;99.90;;;;;;5000585;28;20440;-58
2023/01/07 03:13:45;;;;;;;3.43;1.90;;;6.90;99.90;;;;;;5017565;28;20466;-59
2023/01/07 03:16:29;;;;;;;1.67;1.53;;;6.90;99.90;;;;;;5021345;28;20456;-59
2023/01/07 03:19:06;;;;;;;1.63;1.53;;;6.80;99.90;;;;;;5019060;28;21021;-58
2023/01/07 03:21:34;;;;;;;2.30;1.60;;;6.80;99.90;;;;;;5019768;28;20438;-59
2023/01/07 03:24:01;;;;;;;1.50;1.40;;;6.80;99.90;;;;;;5016617;28;20439;-58
2023/01/07 03:26:52;;;;;;;2.80;1.53;;;6.80;99.90;;;;;;5026184;28;20442;-59
2023/01/07 03:29:19;;;;;;;2.37;1.33;;;6.80;99.90;;;;;;5022390;28;20923;-58
2023/01/07 03:32:04;;;;;;;2.50;1.60;;;6.80;99.90;;;;;;5019996;28;20443;-59
2023/01/07 03:34:33;;;;;;;1.70;1.60;;;6.80;99.90;;;;;;5014332;28;20609;-59
2023/01/07 03:37:17;;;;;;;1.60;1.50;;;6.80;99.90;;;;;;5019326;28;20451;-58
2023/01/07 03:39:45;;;;;;;1.50;1.40;;;6.70;99.90;;;;;;5023239;28;21115;-58
2023/01/07 03:44:57;;;;;;;5.73;3.43;;;6.80;99.90;;;;;;5017944;28;20442;-60
2023/01/07 03:47:26;;;;;;;11.37;6.00;;;6.70;99.90;;;;;;5025278;28;21172;-58
2023/01/07 03:49:52;;;;;;;8.40;5.53;;;6.80;99.90;;;;;;5020750;28;20518;-57
2023/01/07 03:52:17;;;;;;;8.90;5.80;;;6.80;99.90;;;;;;5026955;28;21030;-58
2023/01/07 03:54:43;;;;;;;9.67;6.13;;;6.80;99.90;;;;;;5022033;28;20211;-58
2023/01/07 03:57:08;;;;;;;9.60;6.27;;;6.80;99.90;;;;;;5025987;28;20681;-57
2023/01/07 03:59:34;;;;;;;8.90;5.93;;;6.80;99.90;;;;;;5010891;28;20271;-58
2023/01/07 04:02:00;;;;;;;9.40;6.03;;;6.80;99.90;;;;;;5024927;28;20712;-58
2023/01/07 04:04:25;;;;;;;8.60;5.53;;;6.80;99.90;;;;;;5024406;28;20180;-58
2023/01/07 04:06:51;;;;;;;9.30;5.37;;;6.80;99.90;;;;;;5019188;28;20204;-58
2023/01/07 04:09:20;;;;;;;7.23;5.20;;;6.80;99.90;;;;;;5025793;28;20183;-60
2023/01/07 04:11:47;;;;;;;10.40;6.40;;;6.80;99.90;;;;;;5014675;28;20181;-58
2023/01/07 04:14:12;;;;;;;10.93;5.77;;;6.80;99.90;;;;;;5023552;28;20553;-57
2023/01/07 04:16:38;;;;;;;13.97;8.00;;;6.80;99.90;;;;;;5022275;28;20931;-59
2023/01/07 04:19:04;;;;;;;10.67;6.70;;;6.80;99.90;;;;;;5024229;28;20690;-57
2023/01/07 04:21:29;;;;;;;9.87;6.50;;;6.80;99.90;;;;;;5028033;28;20211;-58
2023/01/07 04:23:55;;;;;;;10.47;6.30;;;6.80;99.90;;;;;;5018365;28;20204;-58
2023/01/07 04:26:20;;;;;;;8.07;5.33;;;6.80;99.90;;;;;;5024805;28;20183;-58
2023/01/07 04:28:46;;;;;;;9.17;5.90;;;6.80;99.90;;;;;;5018266;28;20883;-57
2023/01/07 04:31:12;;;;;;;7.30;5.20;;;6.80;99.90;;;;;;5016626;28;20661;-59
2023/01/07 04:33:37;;;;;;;8.47;5.40;;;6.80;99.90;;;;;;5021297;28;20208;-58
2023/01/07 04:36:03;;;;;;;8.63;6.10;;;6.70;99.90;;;;;;5019400;28;20183;-58
2023/01/07 04:38:29;;;;;;;8.03;5.80;;;6.70;99.90;;;;;;5030340;28;20602;-58
2023/01/07 04:40:54;;;;;;;7.83;5.73;;;6.80;99.90;;;;;;5025573;28;20437;-58
2023/01/07 04:43:20;;;;;;;9.83;5.87;;;6.70;99.90;;;;;;5026956;28;20253;-58
2023/01/07 04:45:45;;;;;;;12.40;6.10;;;6.80;99.90;;;;;;5018935;28;20195;-57
2023/01/07 04:48:11;;;;;;;7.93;6.03;;;6.80;99.90;;;;;;5022402;28;20192;-58
2023/01/07 04:50:37;;;;;;;12.40;7.43;;;6.80;99.90;;;;;;5019931;28;20180;-58
2023/01/07 04:53:02;;;;;;;12.23;7.20;;;6.80;99.90;;;;;;5025744;28;20207;-58
2023/01/07 04:55:28;;;;;;;12.03;7.27;;;6.80;99.90;;;;;;5018610;28;20696;-58
2023/01/07 04:57:53;;;;;;;11.57;7.20;;;6.80;99.90;;;;;;5020198;28;20202;-57
2023/01/07 05:00:19;;;;;;;14.13;7.47;;;6.70;99.90;;;;;;5027894;28;20195;-58
2023/01/07 05:02:45;;;;;;;11.30;6.93;;;6.70;99.90;;;;;;5024799;28;20730;-58
2023/01/07 05:05:10;;;;;;;12.43;7.80;;;6.70;99.90;;;;;;5026278;28;20594;-58
2023/01/07 05:07:36;;;;;;;13.50;8.50;;;6.70;99.90;;;;;;5021246;28;20211;-57
2023/01/07 05:10:02;;;;;;;16.30;8.00;;;6.70;99.90;;;;;;5020538;28;20858;-58
2023/01/07 05:12:27;;;;;;;14.47;8.30;;;6.70;99.90;;;;;;5025226;28;20186;-58
2023/01/07 05:14:53;;;;;;;11.20;7.60;;;6.70;99.90;;;;;;5028918;28;20462;-57
2023/01/07 05:17:19;;;;;;;15.13;9.07;;;6.70;99.90;;;;;;5030417;28;20204;-58
2023/01/07 05:19:44;;;;;;;15.33;9.50;;;6.70;99.90;;;;;;5039367;28;20188;-58
2023/01/07 05:22:10;;;;;;;19.73;10.27;;;6.70;99.90;;;;;;5023373;28;20653;-58
2023/01/07 05:24:35;;;;;;;15.60;9.67;;;6.60;99.90;;;;;;5027379;28;20186;-58
2023/01/07 05:27:01;;;;;;;19.40;10.23;;;6.70;99.90;;;;;;5028893;28;20207;-59
2023/01/07 05:29:26;;;;;;;13.07;9.40;;;6.70;99.90;;;;;;5025522;28;20551;-58
2023/01/07 05:31:52;;;;;;;16.03;9.50;;;6.70;99.90;;;;;;5030278;28;20607;-58
2023/01/07 05:34:18;;;;;;;18.17;10.10;;;6.70;99.90;;;;;;5025614;28;20212;-58
2023/01/07 05:36:43;;;;;;;15.90;10.33;;;6.60;99.90;;;;;;5026484;28;20780;-58
2023/01/07 05:39:09;;;;;;;18.10;10.30;;;6.70;99.90;;;;;;5025325;28;20177;-58
2023/01/07 05:41:34;;;;;;;15.23;9.73;;;6.70;99.90;;;;;;5025324;28;20616;-58
2023/01/07 05:44:00;;;;;;;17.40;10.23;;;6.70;99.90;;;;;;5026599;28;20184;-58
2023/01/07 05:46:26;;;;;;;16.37;9.70;;;6.70;99.90;;;;;;5027330;28;20199;-57
2023/01/07 05:48:53;;;;;;;17.40;9.10;;;6.70;99.90;;;;;;5022765;28;20210;-58
2023/01/07 05:51:19;;;;;;;13.87;9.57;;;6.70;99.90;;;;;;5031514;28;20179;-58
2023/01/07 05:53:44;;;;;;;14.30;9.70;;;6.70;99.90;;;;;;5027345;28;20477;-59
2023/01/07 05:56:10;;;;;;;16.33;10.43;;;6.70;99.90;;;;;;5015151;28;20510;-57
2023/01/07 05:58:35;;;;;;;14.00;9.43;;;6.60;99.90;;;;;;5014431;28;20196;-58
2023/01/07 06:01:01;;;;;;;14.80;9.13;;;6.60;99.90;;;;;;5018034;28;20188;-57
2023/01/07 06:03:27;;;;;;;14.83;9.87;;;6.60;99.90;;;;;;5030098;28;20211;-58
2023/01/07 06:05:53;;;;;;;11.90;8.20;;;6.60;99.90;;;;;;5024206;28;20553;-58
2023/01/07 06:08:18;;;;;;;15.87;9.13;;;6.60;99.90;;;;;;5014719;28;20856;-57
2023/01/07 06:10:44;;;;;;;12.43;7.97;;;6.60;99.90;;;;;;5024409;28;20188;-57
2023/01/07 06:13:09;;;;;;;15.37;8.13;;;6.60;99.90;;;;;;5025540;28;20204;-57
2023/01/07 06:15:35;;;;;;;11.60;7.70;;;6.60;99.90;;;;;;5011868;28;20691;-59
2023/01/07 06:18:01;;;;;;;13.03;8.50;;;6.60;99.90;;;;;;5019519;28;20681;-58
2023/01/07 06:20:28;;;;;;;12.17;7.80;;;6.60;99.90;;;;;;5027870;28;20180;-58
2023/01/07 06:22:54;;;;;;;16.50;9.03;;;6.60;99.90;;;;;;5017106;28;20210;-58
2023/01/07 06:25:19;;;;;;;11.60;7.63;;;6.60;99.90;;;;;;5017001;28;20486;-58
2023/01/07 06:27:45;;;;;;;15.47;8.00;;;6.50;99.90;;;;;;5015681;28;20261;-58
2023/01/07 06:30:11;;;;;;;10.30;7.67;;;6.60;99.90;;;;;;5027358;28;20247;-58
2023/01/07 06:32:38;;;;;;;10.80;7.90;;;6.60;99.90;;;;;;5015918;28;21843;-57
2023/01/07 06:35:05;;;;;;;11.17;7.63;;;6.50;99.90;;;;;;5022728;28;20180;-58
2023/01/07 06:37:31;;;;;;;11.20;7.50;;;6.50;99.90;;;;;;5019288;28;20484;-57
2023/01/07 06:39:57;;;;;;;11.37;7.43;;;6.50;99.90;;;;;;5020433;28;20521;-58
2023/01/07 06:42:22;;;;;;;11.70;8.07;;;6.60;99.90;;;;;;5024288;28;20198;-59
2023/01/07 06:44:48;;;;;;;13.53;8.70;;;6.60;99.90;;;;;;5022664;28;20465;-57
2023/01/07 06:47:13;;;;;;;17.23;9.30;;;6.50;99.90;;;;;;5020182;28;20933;-58
2023/01/07 06:49:39;;;;;;;10.87;7.00;;;6.50;99.90;;;;;;5015652;28;20195;-57
2023/01/07 06:52:05;;;;;;;14.13;8.50;;;6.50;99.90;;;;;;5029361;28;20267;-58
2023/01/07 06:54:30;;;;;;;12.10;8.40;;;6.50;99.90;;;;;;5023271;28;20217;-57
2023/01/07 06:56:56;;;;;;;14.13;8.20;;;6.50;99.90;;;;;;5016864;28;20203;-57
2023/01/07 06:59:21;;;;;;;11.40;8.10;;;6.50;99.90;;;;;;5019622;28;20211;-58
2023/01/07 07:01:47;;;;;;;13.37;8.37;;;6.50;99.90;;;;;;5020686;28;20184;-58
2023/01/07 07:04:12;;;;;;;13.80;8.13;;;6.50;99.90;;;;;;5024119;28;20195;-57
2023/01/07 07:06:38;;;;;;;11.37;8.20;;;6.50;99.90;;;;;;5020522;28;20183;-53
2023/01/07 07:09:04;;;;;;;12.23;7.90;;;6.50;99.90;;;;;;5024663;28;20187;-55
2023/01/07 07:11:29;;;;;;;12.10;8.30;;;6.50;99.90;;;;;;5012330;28;20731;-58
2023/01/07 07:13:55;;;;;;;13.17;8.43;;;6.50;99.90;;;;;;5014768;28;20217;-59
2023/01/07 07:16:22;;;;;;;15.17;8.70;;;6.50;99.90;;;;;;5015689;28;20188;-58
2023/01/07 07:18:48;;;;;;;15.43;9.50;;;6.50;99.90;;;;;;5020943;28;20199;-59
2023/01/07 07:21:14;;;;;;;14.07;8.60;;;6.50;99.90;;;;;;5023662;28;20427;-58
2023/01/07 07:23:39;;;;;;;13.50;8.70;;;6.50;99.90;;;;;;5022753;28;20179;-58
2023/01/07 07:26:05;;;;;;;13.53;8.50;;;6.50;99.90;;;;;;5019319;28;20184;-58
2023/01/07 07:28:30;;;;;;;13.03;8.10;;;6.50;99.90;;;;;;5017643;28;20203;-59
2023/01/07 07:30:56;;;;;;;14.13;8.60;;;6.50;99.90;;;;;;5019521;28;20346;-59
2023/01/07 07:33:22;;;;;;;14.40;9.27;;;6.40;99.90;;;;;;5022660;28;20603;-58
2023/01/07 07:35:48;;;;;;;16.13;8.40;;;6.40;99.90;;;;;;5021792;28;20192;-61
2023/01/07 07:38:16;;;;;;;12.23;7.80;;;6.40;99.90;;;;;;5015996;28;20203;-58
2023/01/07 07:40:42;;;;;;;14.40;9.70;;;6.40;99.90;;;;;;5021561;28;20438;-59
2023/01/07 07:43:07;;;;;;;13.83;8.27;;;6.40;99.90;;;;;;5028289;28;20446;-59
2023/01/07 07:45:33;;;;;;;16.13;9.37;;;6.40;99.90;;;;;;5025077;28;20207;-60
2023/01/07 07:47:58;;;;;;;14.43;9.07;;;6.40;99.90;;;;;;5021776;28;20215;-58
2023/01/07 07:50:24;;;;;;;14.70;9.10;;;6.40;99.90;;;;;;5020218;28;20720;-59
2023/01/07 07:52:50;;;;;;;12.90;8.50;;;6.40;99.90;;;;;;5021810;28;20176;-59
2023/01/07 07:55:15;;;;;;;14.43;9.37;;;6.40;99.90;;;;;;5019991;28;20175;-59
2023/01/07 07:57:41;;;;;;;17.73;8.47;;;6.40;99.90;;;;;;5019706;28;20262;-59
2023/01/07 08:00:07;;;;;;;13.63;8.93;;;6.40;99.90;;;;;;5023475;28;20237;-59
2023/01/07 08:02:33;;;;;;;13.90;8.67;;;6.40;99.90;;;;;;5013176;28;20180;-58
2023/01/07 08:04:58;;;;;;;12.23;8.10;;;6.40;99.90;;;;;;5018278;28;20438;-66
2023/01/07 08:07:24;;;;;;;13.90;9.17;;;6.30;99.90;;;;;;5010731;28;20228;-59
2023/01/07 08:09:49;;;;;;;15.53;9.50;;;6.30;99.90;;;;;;5023021;28;20816;-59
2023/01/07 08:12:15;;;;;;;16.00;9.57;;;6.30;99.90;;;;;;5020812;28;20207;-58
2023/01/07 08:14:41;;;;;;;14.30;9.40;;;6.30;99.90;;;;;;5019717;28;20301;-58
2023/01/07 08:17:06;;;;;;;15.07;9.13;;;6.30;99.90;;;;;;5017921;28;20246;-58
2023/01/07 08:19:32;;;;;;;13.10;8.40;;;6.30;99.90;;;;;;5015471;28;20617;-58
2023/01/07 08:21:57;;;;;;;13.17;8.83;;;6.30;99.90;;;;;;5025168;28;20176;-59
2023/01/07 08:24:23;;;;;;;14.47;9.30;;;6.30;99.90;;;;;;5020540;28;20183;-59
2023/01/07 08:26:49;;;;;;;14.23;9.50;;;6.30;99.90;;;;;;5019892;28;20191;-59
2023/01/07 08:29:15;;;;;;;13.77;9.23;;;6.20;99.90;;;;;;5015132;28;20745;-59
2023/01/07 08:31:40;;;;;;;12.80;8.60;;;6.20;99.90;;;;;;5015998;28;20438;-58
2023/01/07 08:34:06;;;;;;;11.83;7.93;;;6.30;99.90;;;;;;5020068;28;20246;-58
2023/01/07 08:36:31;;;;;;;14.83;8.07;;;6.30;99.90;;;;;;5022964;28;20215;-61
2023/01/07 08:38:57;;;;;;;13.20;8.83;;;6.30;99.90;;;;;;5028227;28;20195;-58
2023/01/07 08:41:24;;;;;;;13.70;8.70;;;6.30;99.90;;;;;;5027586;28;20183;-58
2023/01/07 08:43:51;;;;;;;13.47;9.30;;;6.30;99.90;;;;;;5020028;28;20728;-58
2023/01/07 08:46:17;;;;;;;15.43;8.70;;;6.30;99.90;;;;;;5016390;28;20505;-59
2023/01/07 08:48:42;;;;;;;16.57;10.60;;;6.30;99.90;;;;;;5016510;28;20451;-59
2023/01/07 08:51:08;;;;;;;17.97;11.47;;;6.30;99.90;;;;;;5043571;28;20189;-58
2023/01/07 08:53:34;;;;;;;16.30;9.60;;;6.30;99.90;;;;;;5030217;28;20210;-60
2023/01/07 08:55:59;;;;;;;12.40;8.13;;;6.30;99.90;;;;;;5026432;28;20192;-58
2023/01/07 08:58:25;;;;;;;12.77;8.13;;;6.30;99.90;;;;;;5026743;28;20672;-59
2023/01/07 09:00:51;;;;;;;15.60;8.93;;;6.30;99.90;;;;;;5025791;28;20184;-58
2023/01/07 09:03:17;;;;;;;18.07;10.47;;;6.30;99.90;;;;;;5031775;28;20941;-60
2023/01/07 09:05:45;;;;;;;16.57;9.77;;;6.30;99.90;;;;;;5030289;28;20431;-58
2023/01/07 09:08:11;;;;;;;14.90;9.50;;;6.30;99.90;;;;;;5023998;28;20192;-58
2023/01/07 09:10:36;;;;;;;16.13;8.53;;;6.30;99.90;;;;;;5020923;28;20447;-59
2023/01/07 09:13:02;;;;;;;13.53;8.77;;;6.30;99.90;;;;;;5022581;28;20285;-59
2023/01/07 09:15:28;;;;;;;14.10;8.27;;;6.30;99.90;;;;;;5021960;28;20208;-58
2023/01/07 09:17:53;;;;;;;11.10;7.83;;;6.40;99.90;;;;;;5023115;28;20197;-59
2023/01/07 09:20:19;;;;;;;14.80;8.33;;;6.40;99.90;;;;;;5027458;28;20397;-59
2023/01/07 09:22:45;;;;;;;12.80;7.97;;;6.40;99.90;;;;;;5023000;28;20188;-59
2023/01/07 09:25:11;;;;;;;11.47;7.03;;;6.40;99.90;;;;;;5027676;28;20263;-59
2023/01/07 09:27:37;;;;;;;15.50;8.93;;;6.40;99.90;;;;;;5022074;28;20455;-59
2023/01/07 09:30:04;;;;;;;13.23;8.37;;;6.50;99.90;;;;;;5019396;28;20191;-58
2023/01/07 09:32:29;;;;;;;13.30;8.07;;;6.50;99.90;;;;;;5023321;28;20458;-60
2023/01/07 09:34:55;;;;;;;13.87;8.77;;;6.50;99.90;;;;;;5017217;28;21505;-60
2023/01/07 09:37:21;;;;;;;12.33;8.10;;;6.60;99.90;;;;;;5021796;28;20202;-59
2023/01/07 09:39:47;;;;;;;10.53;7.00;;;6.60;99.90;;;;;;5022048;28;20226;-58
2023/01/07 09:42:39;;;;;;;13.23;8.93;;;6.60;99.90;;;;;;5014269;28;20541;-59
2023/01/07 09:45:35;;;;;;;13.40;8.23;;;6.60;99.90;;;;;;5018832;28;20880;-59
2023/01/07 09:48:10;;;;;;;14.10;8.37;;;6.70;99.90;;;;;;5019854;28;20546;-59
2023/01/07 09:50:54;;;;;;;13.40;8.07;;;6.70;99.90;;;;;;5024679;28;20453;-61
2023/01/07 09:53:31;;;;;;;13.50;7.93;;;6.70;99.90;;;;;;5015373;28;20458;-60
2023/01/07 09:55:59;;;;;;;13.10;8.47;;;6.70;99.90;;;;;;5020017;28;20940;-59
2023/01/07 09:58:25;;;;;;;10.50;8.27;;;6.70;99.90;;;;;;5019565;28;20523;-61
2023/01/07 10:01:21;;;;;;;12.23;7.97;;;6.70;99.90;;;;;;5013401;28;20430;-55
2023/01/07 10:04:12;;;;;;;10.80;7.97;;;6.70;99.90;;;;;;5017021;28;20176;-55
2023/01/07 10:06:43;;;;;;;17.80;8.43;;;6.80;99.90;;;;;;5014049;28;20962;-55
2023/01/07 10:09:24;;;;;;;12.50;8.00;;;6.80;99.90;;;;;;5023109;28;20435;-55
2023/01/07 10:12:04;;;;;;;14.40;8.80;;;6.80;99.90;;;;;;5021671;28;20495;-62
2023/01/07 10:14:43;;;;;;;13.80;9.03;;;6.90;99.90;;;;;;5019826;28;20462;-60
2023/01/07 10:17:44;;;;;;;13.13;8.47;;;6.90;99.90;;;;;;5021087;28;20461;-61
2023/01/07 10:20:49;;;;;;;15.50;9.83;;;6.90;99.90;;;;;;5015294;28;20944;-60
2023/01/07 10:23:32;;;;;;;13.83;9.23;;;6.90;99.90;;;;;;5004774;28;20625;-59
2023/01/07 10:26:01;;;;;;;12.83;8.87;;;7.00;99.90;;;;;;5011532;28;20427;-62
2023/01/07 10:28:40;;;;;;;14.30;9.17;;;7.00;99.90;;;;;;5016712;28;20442;-60
2023/01/07 10:31:15;;;;;;;17.73;9.40;;;7.00;99.90;;;;;;5017966;28;20473;-60
2023/01/07 10:33:42;;;;;;;15.70;8.83;;;7.00;99.90;;;;;;5020231;28;20470;-56
2023/01/07 10:36:18;;;;;;;13.10;8.40;;;7.00;99.90;;;;;;5022151;28;20526;-60
2023/01/07 10:38:52;;;;;;;18.40;8.90;;;7.00;99.90;;;;;;5018154;28;20516;-60
2023/01/07 10:41:51;;;;;;;13.00;8.60;;;7.00;99.90;;;;;;5018287;28;20473;-59
2023/01/07 10:44:28;;;;;;;13.80;9.10;;;6.90;99.90;;;;;;5022873;28;20442;-60
2023/01/07 10:47:42;;;;;;;13.50;7.73;;;6.90;99.90;;;;;;5013375;28;20453;-61
2023/01/07 10:50:46;;;;;;;11.60;7.93;;;6.90;99.90;;;;;;5012338;28;20422;-60
2023/01/07 10:53:27;;;;;;;11.37;7.63;;;6.90;99.90;;;;;;4952264;28;20847;-61
2023/01/07 10:55:58;;;;;;;10.50;7.30;;;6.90;99.90;;;;;;4978761;28;20823;-60
2023/01/07 10:58:30;;;;;;;13.53;7.90;;;6.90;99.90;;;;;;5000981;28;20478;-60
2023/01/07 11:00:56;;;;;;;11.77;7.90;;;7.00;99.90;;;;;;5021826;28;20800;-60
2023/01/07 11:03:23;;;;;;;14.60;7.93;;;7.00;99.90;;;;;;5020070;28;20426;-61
2023/01/07 11:05:55;;;;;;;12.70;8.23;;;7.00;99.90;;;;;;5010309;28;20457;-59
2023/01/07 11:08:48;;;;;;;12.90;8.03;;;7.00;99.90;;;;;;5020979;28;20830;-60
2023/01/07 11:11:18;;;;;;;9.83;7.30;;;7.10;99.90;;;;;;5009774;28;20540;-59
2023/01/07 11:14:11;;;;;;;10.20;7.60;;;7.20;99.90;;;;;;5015056;28;20979;-59
2023/01/07 11:16:54;;;;;;;12.50;7.67;;;7.30;99.90;;;;;;5006778;28;20474;-60
2023/01/07 11:19:20;;;;;;;10.63;6.90;;;7.60;99.90;;;;;;5014328;28;20423;-60
2023/01/07 11:21:51;;;;;;;14.37;7.60;;;7.80;99.90;;;;;;5012810;28;20492;-61
2023/01/07 11:24:25;;;;;;;8.43;6.23;;;8.00;99.90;;;;;;5028046;28;20180;-61
2023/01/07 11:26:57;;;;;;;11.00;7.00;;;8.10;99.90;;;;;;5015006;28;20466;-60
2023/01/07 11:29:26;;;;;;;11.20;7.17;;;8.20;99.90;;;;;;5017113;28;20911;-60
2023/01/07 11:31:58;;;;;;;9.60;6.47;;;8.10;99.90;;;;;;5011912;28;20457;-60
2023/01/07 11:34:29;;;;;;;14.23;6.97;;;8.10;99.90;;;;;;5016770;28;20464;-60
2023/01/07 11:36:55;;;;;;;8.87;6.80;;;8.10;99.90;;;;;;5012808;28;20439;-62
2023/01/07 11:39:28;;;;;;;10.00;7.00;;;8.10;99.90;;;;;;5026451;28;20440;-60
2023/01/07 11:41:59;;;;;;;10.13;6.70;;;8.10;99.90;;;;;;5018593;28;20449;-60
2023/01/07 11:44:25;;;;;;;11.70;7.80;;;8.10;99.90;;;;;;5018636;28;20438;-62
2023/01/07 11:46:52;;;;;;;15.30;9.13;;;8.20;99.90;;;;;;5016874;28;20882;-60
2023/01/07 11:49:27;;;;;;;14.70;8.80;;;8.10;99.90;;;;;;5022603;28;20439;-61
2023/01/07 11:51:54;;;;;;;13.23;8.07;;;8.20;99.90;;;;;;5026039;28;20937;-61
2023/01/07 11:54:30;;;;;;;12.13;8.20;;;8.10;99.90;;;;;;5021437;28;20557;-60
2023/01/07 11:57:13;;;;;;;14.07;8.83;;;8.10;99.90;;;;;;5027625;28;20987;-60
2023/01/07 11:59:38;;;;;;;10.90;7.30;;;8.20;99.90;;;;;;5021467;28;20434;-60
2023/01/07 12:02:22;;;;;;;10.10;7.70;;;8.20;99.90;;;;;;5020339;28;20430;-61
2023/01/07 12:04:48;;;;;;;13.37;7.93;;;8.20;99.90;;;;;;5010649;28;20180;-60
2023/01/07 12:07:15;;;;;;;10.37;7.20;;;8.10;99.90;;;;;;5034725;28;20449;-60
2023/01/07 12:09:43;;;;;;;12.60;7.93;;;8.00;99.90;;;;;;5033101;28;20266;-60
2023/01/07 12:12:30;;;;;;;11.43;7.50;;;8.00;99.90;;;;;;5025151;28;20565;-62
2023/01/07 12:15:16;;;;;;;14.73;9.50;;;8.00;99.90;;;;;;5030392;28;20501;-61
2023/01/07 12:17:45;;;;;;;13.47;8.00;;;7.90;99.90;;;;;;5005117;28;20443;-60
2023/01/07 12:20:45;;;;;;;13.13;8.20;;;8.00;99.90;;;;;;5036226;28;20441;-60
2023/01/07 12:23:35;;;;;;;10.90;7.90;;;8.00;99.90;;;;;;5023381;28;20434;-60
2023/01/07 12:26:03;;;;;;;14.27;8.47;;;8.00;99.90;;;;;;5017951;28;20463;-60
2023/01/07 12:29:03;;;;;;;12.20;8.40;;;8.00;99.90;;;;;;5019128;28;20450;-60
2023/01/07 12:31:50;;;;;;;13.23;8.60;;;8.00;99.90;;;;;;5019639;28;20406;-60
2023/01/07 12:34:40;;;;;;;11.90;8.53;;;8.00;99.90;;;;;;5020853;28;20457;-61
2023/01/07 12:37:37;;;;;;;12.93;7.87;;;8.00;99.90;;;;;;5024406;28;20441;-61
2023/01/07 12:40:36;;;;;;;14.87;8.20;;;8.00;99.90;;;;;;5020427;28;20436;-61
2023/01/07 12:43:11;;;;;;;11.00;7.70;;;8.00;99.90;;;;;;4985083;28;20435;-60
2023/01/07 12:45:51;;;;;;;12.50;8.10;;;8.00;99.90;;;;;;5012813;28;20445;-61
2023/01/07 12:48:35;;;;;;;15.30;8.20;;;8.00;99.90;;;;;;5017171;28;20975;-61
2023/01/07 12:51:07;;;;;;;13.63;8.63;;;8.00;99.90;;;;;;5022578;28;20426;-61
2023/01/07 12:53:35;;;;;;;14.03;9.13;;;8.00;99.90;;;;;;5029501;28;21009;-60
2023/01/07 12:56:25;;;;;;;18.20;8.80;;;8.10;99.90;;;;;;5019541;28;20427;-61
2023/01/07 12:58:57;;;;;;;14.33;9.13;;;8.10;99.90;;;;;;5031032;28;20436;-61
2023/01/07 13:01:48;;;;;;;13.77;9.90;;;8.10;99.90;;;;;;5019119;28;20797;-60
2023/01/07 13:04:32;;;;;;;12.37;8.00;;;8.10;99.90;;;;;;5023146;28;20943;-60
2023/01/07 13:07:07;;;;;;;14.30;9.10;;;8.20;99.90;;;;;;5029890;28;20508;-60
2023/01/07 13:09:40;;;;;;;14.10;9.30;;;8.20;99.90;;;;;;5027286;28;21110;-60
2023/01/07 13:15:08;;;;;;;13.87;9.10;;;8.10;99.90;;;;;;5025203;28;20462;-60